createdAt,value
2023-05-04T00:01:13.361Z,99302.63
2023-05-04T00:03:15.041Z,99301.25
2023-05-04T00:05:16.667Z,99305.94
2023-05-04T00:07:18.476Z,99296.84
2023-05-04T00:09:19.905Z,99294.09
2023-05-04T00:11:21.885Z,99288.84
2023-05-04T00:13:23.857Z,99297.72
2023-05-04T00:15:25.388Z,99301.56
2023-05-04T00:17:27.072Z,99296.59
2023-05-04T00:19:28.526Z,99293.59
2023-05-04T00:21:29.940Z,99293.03
2023-05-04T00:23:31.406Z,99290.81
2023-05-04T00:25:35.827Z,99291.09
2023-05-04T00:27:37.474Z,99286.69
2023-05-04T00:29:38.923Z,99290.00
2023-05-04T00:31:43.744Z,99287.81
2023-05-04T00:33:46.026Z,99282.59
2023-05-04T00:35:47.745Z,99286.44
2023-05-04T00:37:49.162Z,99282.31
2023-05-04T00:39:50.976Z,99280.41
2023-05-04T00:41:52.904Z,99278.22
2023-05-04T00:43:54.394Z,99282.09
2023-05-04T00:45:56.134Z,99269.69
2023-05-04T00:47:58.990Z,99270.25
2023-05-04T00:50:00.526Z,99271.91
2023-05-04T00:52:03.542Z,99267.50
2023-05-04T00:54:05.248Z,99261.47
2023-05-04T00:56:07.683Z,99262.56
2023-05-04T00:58:09.309Z,99267.00
2023-05-04T01:00:13.212Z,99261.78
2023-05-04T01:02:14.714Z,99270.03
2023-05-04T01:04:16.604Z,99263.44
2023-05-04T01:06:47.253Z,99260.13
2023-05-04T01:09:02.673Z,99261.50
2023-05-04T01:11:11.034Z,99260.97
2023-05-04T01:13:15.013Z,99260.97
2023-05-04T01:15:17.920Z,99265.13
2023-05-04T01:17:19.641Z,99261.28
2023-05-04T01:19:21.958Z,99249.97
2023-05-04T01:21:23.487Z,99260.44
2023-05-04T01:23:26.267Z,99258.78
2023-05-04T01:25:33.698Z,99258.00
2023-05-04T01:27:42.889Z,99257.69
2023-05-04T01:30:11.198Z,99258.53
2023-05-04T01:32:15.050Z,99252.72
2023-05-04T01:34:17.171Z,99270.94
2023-05-04T01:36:20.529Z,99258.00
2023-05-04T01:38:22.109Z,99257.16
2023-05-04T01:40:23.653Z,99268.47
2023-05-04T01:42:25.153Z,99268.22
2023-05-04T01:44:28.653Z,99258.28
2023-05-04T01:46:30.637Z,99263.78
2023-05-04T01:48:32.238Z,99259.41
2023-05-04T01:50:33.654Z,99260.22
2023-05-04T01:52:37.226Z,99258.84
2023-05-04T01:54:39.957Z,99255.00
2023-05-04T01:56:42.087Z,99253.34
2023-05-04T01:58:43.534Z,99257.22
2023-05-04T02:00:46.249Z,99259.13
2023-05-04T02:02:47.980Z,99256.38
2023-05-04T02:04:53.086Z,99259.44
2023-05-04T02:06:54.856Z,99262.44
2023-05-04T02:08:56.576Z,99259.97
2023-05-04T02:10:58.197Z,99258.31
2023-05-04T02:13:01.084Z,99263.25
2023-05-04T02:15:02.835Z,99262.19
2023-05-04T02:17:06.819Z,99257.75
2023-05-04T02:19:08.298Z,99265.72
2023-05-04T02:21:10.127Z,99257.22
2023-05-04T02:23:11.685Z,99260.22
2023-05-04T02:25:13.132Z,99256.66
2023-05-04T02:27:14.661Z,99261.88
2023-05-04T02:29:16.328Z,99259.41
2023-05-04T02:31:20.087Z,99253.06
2023-05-04T02:33:21.772Z,99256.94
2023-05-04T02:35:23.235Z,99259.97
2023-05-04T02:37:24.774Z,99258.31
2023-05-04T02:39:26.324Z,99262.19
2023-05-04T02:41:29.220Z,99262.44
2023-05-04T02:43:30.757Z,99261.59
2023-05-04T02:45:37.830Z,99260.81
2023-05-04T02:47:42.348Z,99262.72
2023-05-04T02:49:46.408Z,99265.19
2023-05-04T02:51:47.838Z,99262.44
2023-05-04T02:53:49.322Z,99261.91
2023-05-04T02:55:51.029Z,99264.13
2023-05-04T02:57:52.634Z,99262.47
2023-05-04T02:59:56.671Z,99259.44
2023-05-04T03:01:58.486Z,99261.63
2023-05-04T03:04:00.151Z,99257.50
2023-05-04T03:06:03.507Z,99258.06
2023-05-04T03:08:05.123Z,99257.25
2023-05-04T03:10:09.201Z,99261.91
2023-05-04T03:12:10.763Z,99260.53
2023-05-04T03:14:12.320Z,99261.09
2023-05-04T03:16:14.161Z,99253.38
2023-05-04T03:18:15.740Z,99258.34
2023-05-04T03:20:18.068Z,99253.94
2023-05-04T03:22:19.607Z,99250.91
2023-05-04T03:24:22.077Z,99250.06
2023-05-04T03:26:35.927Z,99246.75
2023-05-04T03:28:37.701Z,99250.63
2023-05-04T03:30:39.430Z,99250.63
2023-05-04T03:32:41.133Z,99246.47
2023-05-04T03:34:42.741Z,99247.59
2023-05-04T03:36:45.052Z,99250.34
2023-05-04T03:38:46.713Z,99239.59
2023-05-04T03:40:48.482Z,99251.75
2023-05-04T03:42:52.336Z,99250.06
2023-05-04T03:44:54.011Z,99247.88
2023-05-04T03:46:55.617Z,99240.72
2023-05-04T03:48:57.704Z,99253.13
2023-05-04T03:50:59.576Z,99250.34
2023-05-04T03:53:04.071Z,99253.66
2023-05-04T03:55:07.108Z,99253.94
2023-05-04T03:57:08.836Z,99256.72
2023-05-04T03:59:11.549Z,99248.44
2023-05-04T04:01:13.253Z,99254.22
2023-05-04T04:03:14.833Z,99256.97
2023-05-04T04:05:16.769Z,99240.72
2023-05-04T04:07:18.722Z,99243.47
2023-05-04T04:09:20.293Z,99239.59
2023-05-04T04:11:21.832Z,99239.06
2023-05-04T04:13:23.992Z,99239.91
2023-05-04T04:15:26.698Z,99239.91
2023-05-04T04:17:28.327Z,99242.66
2023-05-04T04:19:29.889Z,99244.84
2023-05-04T04:21:31.537Z,99250.09
2023-05-04T04:23:34.588Z,99250.09
2023-05-04T04:25:39.065Z,99247.88
2023-05-04T04:27:41.383Z,99250.38
2023-05-04T04:29:42.935Z,99254.22
2023-05-04T04:31:47.310Z,99254.22
2023-05-04T04:33:50.446Z,99254.75
2023-05-04T04:35:53.110Z,99253.13
2023-05-04T04:37:54.898Z,99258.34
2023-05-04T04:39:56.424Z,99255.03
2023-05-04T04:41:57.979Z,99259.47
2023-05-04T04:44:00.351Z,99262.22
2023-05-04T04:46:02.242Z,99262.75
2023-05-04T04:48:09.135Z,99262.75
2023-05-04T04:50:16.480Z,99268.81
2023-05-04T04:52:24.810Z,99265.78
2023-05-04T04:54:29.268Z,99267.44
2023-05-04T04:56:30.739Z,99270.47
2023-05-04T04:58:33.931Z,99267.44
2023-05-04T05:00:35.994Z,99259.47
2023-05-04T05:02:37.743Z,99263.84
2023-05-04T05:04:40.533Z,99267.16
2023-05-04T05:06:45.215Z,99260.53
2023-05-04T05:08:46.987Z,99259.44
2023-05-04T05:10:48.502Z,99260.81
2023-05-04T05:12:52.963Z,99260.81
2023-05-04T05:14:54.917Z,99260.53
2023-05-04T05:16:56.408Z,99254.75
2023-05-04T05:19:00.238Z,99262.19
2023-05-04T05:21:01.936Z,99256.41
2023-05-04T05:23:03.447Z,99263.56
2023-05-04T05:25:06.438Z,99255.84
2023-05-04T05:27:08.275Z,99264.38
2023-05-04T05:29:09.738Z,99257.22
2023-05-04T05:31:11.581Z,99264.97
2023-05-04T05:33:13.820Z,99263.28
2023-05-04T05:35:15.357Z,99261.59
2023-05-04T05:37:17.101Z,99267.09
2023-05-04T05:39:18.773Z,99269.06
2023-05-04T05:41:21.199Z,99256.88
2023-05-04T05:43:22.793Z,99258.00
2023-05-04T05:45:24.500Z,99257.13
2023-05-04T05:47:25.980Z,99253.53
2023-05-04T05:49:27.522Z,99252.69
2023-05-04T05:51:29.526Z,99256.25
2023-05-04T05:53:31.031Z,99253.47
2023-05-04T05:55:32.606Z,99255.94
2023-05-04T05:57:34.168Z,99262.22
2023-05-04T05:59:35.702Z,99259.19
2023-05-04T06:01:37.194Z,99260.78
2023-05-04T06:03:38.940Z,99258.84
2023-05-04T06:05:40.605Z,99253.03
2023-05-04T06:07:42.195Z,99255.19
2023-05-04T06:09:43.770Z,99244.09
2023-05-04T06:11:45.638Z,99241.59
2023-05-04T06:13:47.254Z,99237.91
2023-05-04T06:15:52.769Z,99240.06
2023-05-04T06:17:54.349Z,99237.53
2023-05-04T06:19:55.990Z,99244.91
2023-05-04T06:21:57.887Z,99237.63
2023-05-04T06:23:59.421Z,99245.84
2023-05-04T06:26:01.120Z,99242.13
2023-05-04T06:28:03.827Z,99242.34
2023-05-04T06:30:06.705Z,99235.91
2023-05-04T06:32:09.941Z,99241.06
2023-05-04T06:34:17.181Z,99239.28
2023-05-04T06:36:20.163Z,99238.06
2023-05-04T06:38:22.161Z,99241.56
2023-05-04T06:40:26.840Z,99237.81
2023-05-04T06:42:38.564Z,99241.00
2023-05-04T06:44:40.034Z,99232.88
2023-05-04T06:46:41.496Z,99243.28
2023-05-04T06:48:43.103Z,99235.44
2023-05-04T06:50:48.348Z,99245.84
2023-05-04T06:52:49.973Z,99238.81
2023-05-04T06:54:51.722Z,99242.06
2023-05-04T06:56:53.531Z,99238.06
2023-05-04T06:58:55.189Z,99244.88
2023-05-04T07:00:56.771Z,99238.97
2023-05-04T07:02:58.514Z,99237.16
2023-05-04T07:05:00.743Z,99238.72
2023-05-04T07:07:02.309Z,99235.88
2023-05-04T07:09:04.127Z,99231.88
2023-05-04T07:11:05.789Z,99230.72
2023-05-04T07:13:08.097Z,99228.97
2023-05-04T07:15:10.521Z,99226.09
2023-05-04T07:17:12.302Z,99225.50
2023-05-04T07:19:14.445Z,99225.13
2023-05-04T07:21:27.831Z,99223.06
2023-05-04T07:23:33.463Z,99223.78
2023-05-04T07:25:35.227Z,99223.69
2023-05-04T07:27:36.798Z,99226.38
2023-05-04T07:29:38.265Z,99221.06
2023-05-04T07:31:41.418Z,99220.63
2023-05-04T07:33:43.478Z,99228.56
2023-05-04T07:35:45.115Z,99224.56
2023-05-04T07:37:46.716Z,99218.91
2023-05-04T07:39:48.370Z,99207.69
2023-05-04T07:41:53.772Z,99206.50
2023-05-04T07:43:55.227Z,99195.28
2023-05-04T07:45:56.869Z,99192.91
2023-05-04T07:47:58.481Z,99197.75
2023-05-04T07:49:59.947Z,99196.53
2023-05-04T07:52:01.721Z,99199.69
2023-05-04T07:54:03.360Z,99199.25
2023-05-04T07:56:12.764Z,99200.19
2023-05-04T07:58:15.436Z,99197.47
2023-05-04T08:00:17.702Z,99188.38
2023-05-04T08:02:19.677Z,99187.34
2023-05-04T08:04:21.296Z,99193.50
2023-05-04T08:06:22.750Z,99190.78
2023-05-04T08:08:24.895Z,99199.66
2023-05-04T08:10:27.403Z,99197.78
2023-05-04T08:12:29.087Z,99188.34
2023-05-04T08:14:30.778Z,99199.22
2023-05-04T08:16:32.690Z,99192.25
2023-05-04T08:18:34.329Z,99201.19
2023-05-04T08:20:35.983Z,99196.47
2023-05-04T08:22:38.600Z,99191.13
2023-05-04T08:24:40.107Z,99195.56
2023-05-04T08:26:43.744Z,99195.63
2023-05-04T08:28:47.100Z,99196.47
2023-05-04T08:30:49.230Z,99190.09
2023-05-04T08:32:54.980Z,99187.66
2023-05-04T08:34:56.523Z,99186.88
2023-05-04T08:36:58.205Z,99188.06
2023-05-04T08:39:02.027Z,99194.78
2023-05-04T08:41:04.655Z,99185.97
2023-05-04T08:43:06.480Z,99187.91
2023-05-04T08:45:08.532Z,99176.47
2023-05-04T08:47:10.227Z,99188.44
2023-05-04T08:49:11.797Z,99180.06
2023-05-04T08:51:14.513Z,99182.56
2023-05-04T08:53:19.068Z,99183.03
2023-05-04T08:55:20.979Z,99177.09
2023-05-04T08:57:26.298Z,99182.34
2023-05-04T08:59:29.244Z,99188.38
2023-05-04T09:01:32.659Z,99182.44
2023-05-04T09:03:34.928Z,99178.16
2023-05-04T09:05:40.759Z,99179.44
2023-05-04T09:07:42.464Z,99177.47
2023-05-04T09:09:44.613Z,99175.13
2023-05-04T09:11:46.702Z,99178.34
2023-05-04T09:13:48.255Z,99177.16
2023-05-04T09:15:56.033Z,99163.13
2023-05-04T09:18:02.092Z,99157.50
2023-05-04T09:20:04.757Z,99160.75
2023-05-04T09:22:17.161Z,99162.31
2023-05-04T09:24:29.352Z,99149.06
2023-05-04T09:26:32.885Z,99156.25
2023-05-04T09:28:36.764Z,99144.16
2023-05-04T09:30:38.398Z,99142.44
2023-05-04T09:32:47.200Z,99138.75
2023-05-04T09:34:53.012Z,99132.28
2023-05-04T09:36:59.317Z,99129.75
2023-05-04T09:39:11.499Z,99135.28
2023-05-04T09:41:13.267Z,99124.31
2023-05-04T09:43:15.356Z,99132.97
2023-05-04T09:45:16.860Z,99137.66
2023-05-04T09:47:18.576Z,99129.88
2023-05-04T09:49:30.324Z,99129.28
2023-05-04T09:51:32.032Z,99123.97
2023-05-04T09:53:38.350Z,99125.38
2023-05-04T09:55:45.163Z,99130.03
2023-05-04T09:57:48.577Z,99122.69
2023-05-04T09:59:52.469Z,99116.03
2023-05-04T10:01:54.211Z,99119.78
2023-05-04T10:03:56.217Z,99111.16
2023-05-04T10:06:04.205Z,99112.53
2023-05-04T10:08:06.635Z,99106.69
2023-05-04T10:10:09.626Z,99100.50
2023-05-04T10:12:12.032Z,99102.38
2023-05-04T10:14:13.969Z,99106.22
2023-05-04T10:16:31.784Z,99099.66
2023-05-04T10:18:50.698Z,99102.69
2023-05-04T10:21:28.376Z,99100.13
2023-05-04T10:24:00.174Z,99094.72
2023-05-04T10:26:25.818Z,99089.31
2023-05-04T10:28:43.176Z,99087.53
2023-05-04T10:30:45.219Z,99079.81
2023-05-04T10:32:55.725Z,99079.66
2023-05-04T10:35:08.330Z,99071.91
2023-05-04T10:37:17.236Z,99068.91
2023-05-04T10:39:22.622Z,99069.09
2023-05-04T10:41:24.382Z,99071.31
2023-05-04T10:43:26.827Z,99065.41
2023-05-04T10:45:38.522Z,99053.09
2023-05-04T10:47:41.552Z,99057.72
2023-05-04T10:49:43.147Z,99055.03
2023-05-04T10:51:49.449Z,99049.97
2023-05-04T10:53:52.115Z,99046.97
2023-05-04T10:55:54.405Z,99047.59
2023-05-04T10:57:57.917Z,99032.94
2023-05-04T10:59:59.782Z,99034.63
2023-05-04T11:02:03.230Z,99029.56
2023-05-04T11:04:04.999Z,99027.63
2023-05-04T11:06:27.530Z,99022.00
2023-05-04T11:08:30.489Z,99024.91
2023-05-04T11:10:32.188Z,99022.94
2023-05-04T11:12:34.442Z,99024.53
2023-05-04T11:14:42.787Z,99018.09
2023-05-04T11:16:44.958Z,99020.13
2023-05-04T11:18:46.717Z,99013.66
2023-05-04T11:20:48.165Z,99014.50
2023-05-04T11:22:51.026Z,99009.59
2023-05-04T11:24:54.254Z,99006.31
2023-05-04T11:26:57.162Z,99008.69
2023-05-04T11:28:58.710Z,99014.69
2023-05-04T11:31:17.443Z,98999.72
2023-05-04T11:33:28.181Z,99008.53
2023-05-04T11:35:31.886Z,99004.44
2023-05-04T11:37:41.354Z,99002.38
2023-05-04T11:39:43.321Z,99007.16
2023-05-04T11:41:44.860Z,99005.53
2023-05-04T11:43:47.208Z,98998.66
2023-05-04T11:45:49.260Z,98997.41
2023-05-04T11:47:52.341Z,98994.16
2023-05-04T11:49:55.690Z,98997.31
2023-05-04T11:52:10.314Z,98995.59
2023-05-04T11:54:20.141Z,98987.06
2023-05-04T11:56:21.953Z,98986.28
2023-05-04T11:58:25.685Z,98984.25
2023-05-04T12:00:41.929Z,98983.47
2023-05-04T12:02:43.626Z,98982.38
2023-05-04T12:04:45.471Z,98978.47
2023-05-04T12:06:48.980Z,98970.91
2023-05-04T12:08:50.645Z,98968.63
2023-05-04T12:11:22.183Z,98974.34
2023-05-04T12:13:23.798Z,98968.81
2023-05-04T12:15:32.985Z,98967.25
2023-05-04T12:17:43.902Z,98969.78
2023-05-04T12:19:56.652Z,98971.50
2023-05-04T12:21:59.051Z,98970.03
2023-05-04T12:24:03.353Z,98963.69
2023-05-04T12:26:06.100Z,98955.34
2023-05-04T12:28:08.023Z,98949.78
2023-05-04T12:30:10.980Z,98950.69
2023-05-04T12:32:12.718Z,98945.94
2023-05-04T12:34:14.223Z,98948.03
2023-05-04T12:36:16.233Z,98942.84
2023-05-04T12:38:17.998Z,98950.56
2023-05-04T12:40:28.359Z,98957.03
2023-05-04T12:42:30.549Z,98952.75
2023-05-04T12:44:32.377Z,98946.84
2023-05-04T12:46:34.016Z,98939.28
2023-05-04T12:48:35.634Z,98941.34
2023-05-04T12:50:37.501Z,98939.78
2023-05-04T12:52:40.929Z,98944.69
2023-05-04T12:54:42.522Z,98941.59
2023-05-04T12:56:44.013Z,98929.59
2023-05-04T12:58:48.467Z,98928.03
2023-05-04T13:00:50.226Z,98920.03
2023-05-04T13:02:51.950Z,98914.50
2023-05-04T13:04:53.720Z,98909.72
2023-05-04T13:06:55.249Z,98906.59
2023-05-04T13:08:57.708Z,98906.69
2023-05-04T13:10:59.238Z,98914.34
2023-05-04T13:13:01.006Z,98906.72
2023-05-04T13:15:02.473Z,98901.09
2023-05-04T13:17:06.876Z,98894.22
2023-05-04T13:19:11.206Z,98902.66
2023-05-04T13:21:13.022Z,98897.78
2023-05-04T13:23:15.178Z,98894.53
2023-05-04T13:25:17.366Z,98896.91
2023-05-04T13:27:18.844Z,98894.09
2023-05-04T13:29:22.385Z,98888.47
2023-05-04T13:31:24.372Z,98886.03
2023-05-04T13:33:30.200Z,98883.56
2023-05-04T13:35:32.202Z,98877.53
2023-05-04T13:37:33.910Z,98873.06
2023-05-04T13:39:41.934Z,98870.22
2023-05-04T13:41:43.395Z,98867.31
2023-05-04T13:43:44.936Z,98861.66
2023-05-04T13:45:46.503Z,98853.47
2023-05-04T13:47:50.494Z,98856.22
2023-05-04T13:49:52.237Z,98857.34
2023-05-04T13:51:56.597Z,98851.22
2023-05-04T13:53:59.507Z,98850.34
2023-05-04T13:56:02.745Z,98849.81
2023-05-04T13:58:04.591Z,98853.28
2023-05-04T14:00:08.405Z,98846.41
2023-05-04T14:02:12.989Z,98846.28
2023-05-04T14:04:14.693Z,98835.34
2023-05-04T14:06:16.845Z,98838.09
2023-05-04T14:08:18.445Z,98838.84
2023-05-04T14:10:23.061Z,98832.28
2023-05-04T14:12:24.738Z,98828.22
2023-05-04T14:14:26.275Z,98839.84
2023-05-04T14:16:28.098Z,98836.16
2023-05-04T14:18:32.101Z,98829.63
2023-05-04T14:20:33.726Z,98830.38
2023-05-04T14:22:37.911Z,98822.66
2023-05-04T14:24:39.721Z,98820.16
2023-05-04T14:26:41.302Z,98815.75
2023-05-04T14:28:42.804Z,98812.03
2023-05-04T14:30:44.386Z,98812.78
2023-05-04T14:32:46.274Z,98809.06
2023-05-04T14:34:47.842Z,98798.94
2023-05-04T14:36:49.894Z,98791.19
2023-05-04T14:38:52.610Z,98789.94
2023-05-04T14:40:55.379Z,98791.03
2023-05-04T14:42:59.640Z,98783.22
2023-05-04T14:45:01.384Z,98788.75
2023-05-04T14:47:04.812Z,98774.22
2023-05-04T14:49:08.309Z,98772.50
2023-05-04T14:51:12.486Z,98781.19
2023-05-04T14:53:14.431Z,98786.75
2023-05-04T14:55:15.945Z,98779.50
2023-05-04T14:57:18.258Z,98770.63
2023-05-04T14:59:19.872Z,98765.69
2023-05-04T15:01:21.404Z,98772.75
2023-05-04T15:03:23.224Z,98766.25
2023-05-04T15:05:24.747Z,98762.09
2023-05-04T15:07:27.432Z,98760.41
2023-05-04T15:09:29.017Z,98764.63
2023-05-04T15:11:30.913Z,98757.19
2023-05-04T15:13:44.593Z,98743.00
2023-05-04T15:16:13.241Z,98746.38
2023-05-04T15:18:20.948Z,98749.06
2023-05-04T15:20:25.218Z,98747.09
2023-05-04T15:22:28.281Z,98745.28
2023-05-04T15:24:30.060Z,98746.31
2023-05-04T15:26:33.566Z,98742.03
2023-05-04T15:28:35.031Z,98739.47
2023-05-04T15:30:45.297Z,98733.69
2023-05-04T15:32:47.369Z,98736.75
2023-05-04T15:35:01.170Z,98729.31
2023-05-04T15:37:06.568Z,98725.53
2023-05-04T15:39:08.653Z,98728.59
2023-05-04T15:41:10.553Z,98729.66
2023-05-04T15:43:12.378Z,98732.72
2023-05-04T15:45:13.901Z,98739.41
2023-05-04T15:47:15.949Z,98727.66
2023-05-04T15:49:17.639Z,98731.53
2023-05-04T15:51:19.300Z,98733.06
2023-05-04T15:53:21.225Z,98723.25
2023-05-04T15:55:26.195Z,98729.09
2023-05-04T15:57:28.132Z,98725.41
2023-05-04T15:59:29.606Z,98727.63
2023-05-04T16:01:32.328Z,98718.66
2023-05-04T16:03:35.152Z,98725.00
2023-05-04T16:05:37.091Z,98722.09
2023-05-04T16:07:38.682Z,98721.53
2023-05-04T16:09:40.597Z,98724.19
2023-05-04T16:11:42.590Z,98716.53
2023-05-04T16:13:44.217Z,98713.63
2023-05-04T16:15:51.030Z,98715.03
2023-05-04T16:17:52.708Z,98718.56
2023-05-04T16:19:54.385Z,98714.81
2023-05-04T16:21:55.837Z,98716.69
2023-05-04T16:23:57.824Z,98715.75
2023-05-04T16:25:59.517Z,98707.59
2023-05-04T16:28:01.576Z,98710.63
2023-05-04T16:30:03.226Z,98706.47
2023-05-04T16:32:05.063Z,98708.31
2023-05-04T16:34:06.564Z,98704.63
2023-05-04T16:36:09.804Z,98700.91
2023-05-04T16:38:15.855Z,98708.81
2023-05-04T16:40:17.845Z,98697.53
2023-05-04T16:42:21.490Z,98706.59
2023-05-04T16:44:23.893Z,98702.53
2023-05-04T16:46:25.553Z,98700.88
2023-05-04T16:48:27.190Z,98697.63
2023-05-04T16:50:28.997Z,98690.88
2023-05-04T16:52:30.456Z,98690.19
2023-05-04T16:54:32.094Z,98684.34
2023-05-04T16:56:36.565Z,98692.19
2023-05-04T16:58:38.310Z,98683.53
2023-05-04T17:00:43.005Z,98690.63
2023-05-04T17:02:45.435Z,98688.88
2023-05-04T17:04:47.181Z,98687.13
2023-05-04T17:06:48.792Z,98689.00
2023-05-04T17:08:50.342Z,98687.25
2023-05-04T17:10:51.892Z,98683.66
2023-05-04T17:12:54.764Z,98690.25
2023-05-04T17:14:56.904Z,98691.78
2023-05-04T17:16:58.356Z,98678.84
2023-05-04T17:18:59.926Z,98687.09
2023-05-04T17:21:01.464Z,98687.34
2023-05-04T17:23:02.990Z,98684.44
2023-05-04T17:25:04.793Z,98687.47
2023-05-04T17:27:08.713Z,98688.16
2023-05-04T17:29:10.478Z,98690.03
2023-05-04T17:31:15.422Z,98687.00
2023-05-04T17:33:17.139Z,98688.38
2023-05-04T17:35:25.222Z,98690.91
2023-05-04T17:37:29.689Z,98689.47
2023-05-04T17:39:31.714Z,98694.59
2023-05-04T17:41:35.909Z,98701.19
2023-05-04T17:43:37.910Z,98705.81
2023-05-04T17:45:39.408Z,98703.75
2023-05-04T17:47:40.893Z,98705.09
2023-05-04T17:49:42.478Z,98708.56
2023-05-04T17:51:49.526Z,98704.03
2023-05-04T17:53:51.076Z,98712.25
2023-05-04T17:55:52.504Z,98715.75
2023-05-04T17:57:54.331Z,98712.47
2023-05-04T17:59:57.681Z,98715.63
2023-05-04T18:01:59.301Z,98717.47
2023-05-04T18:04:04.040Z,98721.63
2023-05-04T18:06:06.240Z,98718.22
2023-05-04T18:08:07.889Z,98718.88
2023-05-04T18:10:09.788Z,98718.41
2023-05-04T18:12:11.351Z,98723.88
2023-05-04T18:14:13.140Z,98719.75
2023-05-04T18:16:14.772Z,98722.88
2023-05-04T18:18:16.645Z,98727.50
2023-05-04T18:20:18.482Z,98714.09
2023-05-04T18:22:20.052Z,98726.75
2023-05-04T18:24:21.789Z,98724.97
2023-05-04T18:26:23.298Z,98719.28
2023-05-04T18:28:24.891Z,98717.97
2023-05-04T18:30:26.635Z,98722.22
2023-05-04T18:32:28.235Z,98727.69
2023-05-04T18:34:29.719Z,98730.00
2023-05-04T18:36:32.536Z,98729.03
2023-05-04T18:38:37.686Z,98735.25
2023-05-04T18:40:39.217Z,98737.09
2023-05-04T18:42:40.761Z,98735.34
2023-05-04T18:44:42.445Z,98737.13
2023-05-04T18:46:43.927Z,98738.16
2023-05-04T18:48:45.772Z,98736.38
2023-05-04T18:50:53.959Z,98745.28
2023-05-04T18:52:55.603Z,98738.22
2023-05-04T18:54:57.378Z,98740.84
2023-05-04T18:56:59.262Z,98746.75
2023-05-04T18:59:00.847Z,98744.63
2023-05-04T19:01:02.900Z,98740.41
2023-05-04T19:03:04.738Z,98743.03
2023-05-04T19:05:06.356Z,98740.44
2023-05-04T19:07:09.771Z,98745.03
2023-05-04T19:09:14.439Z,98742.91
2023-05-04T19:11:16.070Z,98747.84
2023-05-04T19:13:17.804Z,98749.50
2023-05-04T19:15:21.303Z,98742.97
2023-05-04T19:17:23.041Z,98750.34
2023-05-04T19:19:25.934Z,98745.44
2023-05-04T19:21:28.335Z,98752.47
2023-05-04T19:23:29.850Z,98749.56
2023-05-04T19:25:35.055Z,98754.94
2023-05-04T19:27:36.819Z,98759.19
2023-05-04T19:29:41.183Z,98759.50
2023-05-04T19:31:42.905Z,98754.59
2023-05-04T19:33:48.811Z,98760.81
2023-05-04T19:35:51.059Z,98767.03
2023-05-04T19:37:52.658Z,98770.97
2023-05-04T19:39:55.512Z,98768.84
2023-05-04T19:41:56.923Z,98775.88
2023-05-04T19:43:58.500Z,98774.59
2023-05-04T19:46:02.346Z,98771.31
2023-05-04T19:48:04.730Z,98773.09
2023-05-04T19:50:10.880Z,98767.06
2023-05-04T19:52:12.505Z,98775.22
2023-05-04T19:54:14.530Z,98771.94
2023-05-04T19:56:15.934Z,98770.66
2023-05-04T19:58:17.379Z,98771.28
2023-05-04T20:00:19.591Z,98779.16
2023-05-04T20:02:21.567Z,98780.31
2023-05-04T20:04:23.156Z,98777.69
2023-05-04T20:06:24.792Z,98783.25
2023-05-04T20:08:26.914Z,98781.13
2023-05-04T20:10:28.434Z,98786.19
2023-05-04T20:12:29.995Z,98787.31
2023-05-04T20:14:31.655Z,98791.56
2023-05-04T20:16:33.675Z,98790.75
2023-05-04T20:18:35.176Z,98784.72
2023-05-04T20:20:36.899Z,98782.25
2023-05-04T20:22:38.436Z,98780.13
2023-05-04T20:24:40.822Z,98777.34
2023-05-04T20:26:42.431Z,98777.16
2023-05-04T20:28:43.964Z,98781.41
2023-05-04T20:30:48.215Z,98771.28
2023-05-04T20:32:49.811Z,98768.63
2023-05-04T20:34:51.317Z,98774.81
2023-05-04T20:36:52.991Z,98771.56
2023-05-04T20:38:55.364Z,98769.41
2023-05-04T20:40:57.205Z,98770.06
2023-05-04T20:43:00.254Z,98763.53
2023-05-04T20:45:01.824Z,98768.09
2023-05-04T20:47:07.272Z,98765.97
2023-05-04T20:49:09.171Z,98771.03
2023-05-04T20:51:14.714Z,98760.84
2023-05-04T20:53:17.066Z,98761.84
2023-05-04T20:55:18.696Z,98759.38
2023-05-04T20:57:20.289Z,98759.69
2023-05-04T20:59:21.960Z,98761.16
2023-05-04T21:01:23.527Z,98757.06
2023-05-04T21:03:25.130Z,98756.56
2023-05-04T21:05:26.871Z,98753.66
2023-05-04T21:07:28.368Z,98753.44
2023-05-04T21:09:30.006Z,98752.63
2023-05-04T21:11:31.430Z,98747.72
2023-05-04T21:13:32.999Z,98753.09
2023-05-04T21:15:34.484Z,98750.97
2023-05-04T21:17:36.099Z,98750.78
2023-05-04T21:19:37.892Z,98749.47
2023-05-04T21:21:41.522Z,98760.06
2023-05-04T21:23:43.156Z,98755.16
2023-05-04T21:25:44.658Z,98762.13
2023-05-04T21:27:46.309Z,98765.25
2023-05-04T21:29:47.904Z,98763.09
2023-05-04T21:31:49.499Z,98764.56
2023-05-04T21:33:51.196Z,98760.94
2023-05-04T21:35:53.151Z,98758.50
2023-05-04T21:37:54.918Z,98762.75
2023-05-04T21:39:56.582Z,98758.66
2023-05-04T21:41:58.306Z,98770.88
2023-05-04T21:43:59.861Z,98765.16
2023-05-04T21:46:01.373Z,98771.81
2023-05-04T21:48:03.823Z,98778.84
2023-05-04T21:50:06.149Z,98769.19
2023-05-04T21:52:10.726Z,98768.19
2023-05-04T21:54:12.246Z,98764.91
2023-05-04T21:56:14.282Z,98773.56
2023-05-04T21:58:17.165Z,98775.00
2023-05-04T22:00:19.072Z,98764.53
2023-05-04T22:02:20.624Z,98756.22
2023-05-04T22:04:22.317Z,98759.63
2023-05-04T22:06:24.529Z,98758.00
2023-05-04T22:08:27.396Z,98755.03
2023-05-04T22:10:29.118Z,98745.72
2023-05-04T22:12:30.726Z,98745.50
2023-05-04T22:14:32.373Z,98750.06
2023-05-04T22:16:34.018Z,98750.69
2023-05-04T22:18:35.541Z,98756.03
2023-05-04T22:20:37.895Z,98755.88
2023-05-04T22:22:39.369Z,98763.69
2023-05-04T22:24:41.042Z,98758.75
2023-05-04T22:26:42.792Z,98764.94
2023-05-04T22:28:44.325Z,98767.22
2023-05-04T22:30:45.939Z,98768.63
2023-05-04T22:32:47.931Z,98764.53
2023-05-04T22:34:49.522Z,98761.56
2023-05-04T22:36:51.035Z,98764.16
2023-05-04T22:38:52.595Z,98765.28
2023-05-04T22:40:54.214Z,98765.88
2023-05-04T22:42:55.732Z,98765.38
2023-05-04T22:44:57.511Z,98759.63
2023-05-04T22:46:59.021Z,98759.13
2023-05-04T22:49:00.563Z,98765.00
2023-05-04T22:51:02.016Z,98766.94
2023-05-04T22:53:03.944Z,98763.19
2023-05-04T22:55:07.788Z,98771.50
2023-05-04T22:57:09.824Z,98761.84
2023-05-04T22:59:11.336Z,98762.97
2023-05-04T23:01:13.014Z,98756.94
2023-05-04T23:03:14.768Z,98761.97
2023-05-04T23:05:16.449Z,98763.91
2023-05-04T23:07:17.893Z,98766.97
2023-05-04T23:09:19.345Z,98766.19
2023-05-04T23:11:23.861Z,98762.09
2023-05-04T23:13:25.383Z,98754.06
2023-05-04T23:15:27.077Z,98759.94
2023-05-04T23:17:29.026Z,98759.09
2023-05-04T23:19:31.924Z,98755.00
2023-05-04T23:21:33.500Z,98762.50
2023-05-04T23:23:35.405Z,98757.28
2023-05-04T23:25:36.906Z,98758.41
2023-05-04T23:27:40.992Z,98756.75
2023-05-04T23:29:42.512Z,98755.41
2023-05-04T23:31:44.179Z,98752.03
2023-05-04T23:33:45.906Z,98757.28
2023-05-04T23:35:47.368Z,98750.59
2023-05-04T23:37:48.896Z,98750.59
2023-05-04T23:39:50.655Z,98753.34
2023-05-04T23:41:52.154Z,98748.97
2023-05-04T23:43:53.733Z,98746.50
2023-05-04T23:46:08.068Z,98754.81
2023-05-04T23:48:09.915Z,98758.72
2023-05-04T23:50:11.741Z,98755.13
2023-05-04T23:52:13.288Z,98748.25
2023-05-04T23:54:15.165Z,98757.69
2023-05-04T23:56:17.416Z,98748.53
2023-05-04T23:58:18.844Z,98743.34
